Shirley, IL (61772)

8:35 AM CDT on August 30, 2015 (GMT -0500)
Funk Farms Trust | | Change Station
CLOSE
Current Station
Personal Weather Station
Location: Shirley, IL
Elevation: 709 ft
Nearby Weather Stations

Elev 709 ft 40.38 °N, 89.06 °W | Updated 4 minutes ago

Overcast
Overcast
70.0 °F
Feels Like 70.0 °F
N
3.2
Wind Variable Wind from SSE

Today
High -- | Low -- °F
--% Chance of Precip.
Yesterday
High -- | Low -- °F
Precip. -- in
6:21 AM 7:31 PM
Full, 99% visible
Pressure 30.05 in
Visibility 0.1 miles
Clouds Overcast 100 ft
Dew Point 69 °F
Humidity 98%
Rainfall 0.00 in
Snow Depth Not available.
UV 0 out of 12
Pollen 10.30 out of 12
Air Quality Not available.
Flu Activity Not available.
METAR KBMI 301256Z 07005KT 1/8SM R29/1000V1200FT FG OVC001 20/20 A3007 RMK AO2 T02000200 SLP174
Pressure 30.05 in
Visibility 0.1 miles
Clouds Overcast 100 ft
Dew Point 69 °F
Humidity 98%
Rainfall 0.00 in
Snow Depth Not available.
UV 0 out of 12
Pollen 10.30 out of 12
Air Quality Not available.
Flu Activity Not available.
METAR KBMI 301256Z 07005KT 1/8SM R29/1000V1200FT FG OVC001 20/20 A3007 RMK AO2 T02000200 SLP174

10-Day Weather Forecast

×

Almanac

Astronomy

Aug. 30, 2015 Rise Set
Actual Time
Civil Twilight
Nautical Twilight
Astronomical Twilight
Moon
Length of Visible Light
Length of Day
Tomorrow will be .
, % of the Moon is Illuminated

Today's Extremes

State Highs State Lows

Community

WunderPhotos

Upload Photos

1,850,953 photos uploaded!

WunderBlogs® & News

Nearby

Air Quality

  Air Quality AQ Index Pollutant
Not available.

Snow Depth

Station Depth Elevation

Earthquake Activity

City Distance Mag. Time & Date
Minimum magnitude displayed is 2.5.

Coastal Water Temperatures

Place Temperature

Stations

Nearby Weather Stations

Station Location Temp. Windchill Dew Point Humidity Wind Precip. Elev Updated Type